DKH1373 ZSPD-RKPC
Flight info
| Callsign | DKH1373 |
|---|---|
| Flight time | N/A |
| Altitude | 37000 |
| Route | LAM96D LAMEN A593 SADLI Y590 ELGEP Y722 SOSDO SOSDO2M |
| Aircraft | A320/M-SDE3FGHIRWY/LB1 |
Departure
| Time | 2026-05-07 09:42 |
|---|---|
| Airport | Shanghai Pudong International Airport (ZSPD) |
Arrival
| Time | N/A |
|---|---|
| Airport | Jeju International Airport (RKPC) |
| Time | Latitude | Longitude | Altitude | Speed | Heading |
|---|---|---|---|---|---|
| 2026-05-07 08:48 | 31.13789 | 121.80336 | 23 ft | 0 kts | 252° |
| 2026-05-07 08:58 | 31.13789 | 121.80337 | -5 ft | 0 kts | 252° |
| 2026-05-07 09:28 | 31.13789 | 121.80338 | -5 ft | 1 kts | 252° |
| 2026-05-07 09:29 | 31.13797 | 121.80366 | 26 ft | 4 kts | 253° |
| 2026-05-07 09:29 | 31.13804 | 121.80395 | 24 ft | 4 kts | 259° |
| 2026-05-07 09:29 | 31.13805 | 121.80426 | 23 ft | 4 kts | 288° |
| 2026-05-07 09:29 | 31.13797 | 121.80441 | 23 ft | 0 kts | 342° |
| 2026-05-07 09:32 | 31.13801 | 121.80440 | 23 ft | 4 kts | 342° |
| 2026-05-07 09:32 | 31.13876 | 121.80411 | 24 ft | 18 kts | 341° |
| 2026-05-07 09:32 | 31.13999 | 121.80366 | 23 ft | 19 kts | 342° |
| 2026-05-07 09:33 | 31.14128 | 121.80318 | 23 ft | 17 kts | 342° |
| 2026-05-07 09:33 | 31.14202 | 121.80306 | 23 ft | 8 kts | 33° |
| 2026-05-07 09:33 | 31.14223 | 121.80373 | 23 ft | 9 kts | 75° |
| 2026-05-07 09:33 | 31.14244 | 121.80451 | 25 ft | 13 kts | 72° |
| 2026-05-07 09:34 | 31.14276 | 121.80566 | 24 ft | 16 kts | 71° |
| 2026-05-07 09:34 | 31.14312 | 121.80693 | 23 ft | 18 kts | 71° |
| 2026-05-07 09:34 | 31.14352 | 121.80835 | 23 ft | 19 kts | 72° |
| 2026-05-07 09:34 | 31.14395 | 121.80991 | 23 ft | 21 kts | 72° |
| 2026-05-07 09:35 | 31.14441 | 121.81156 | 23 ft | 21 kts | 73° |
| 2026-05-07 09:35 | 31.14483 | 121.81308 | 23 ft | 15 kts | 71° |
| 2026-05-07 09:35 | 31.14513 | 121.81356 | 23 ft | 7 kts | 17° |
| 2026-05-07 09:35 | 31.14582 | 121.81336 | 23 ft | 13 kts | 342° |
| 2026-05-07 09:36 | 31.14700 | 121.81293 | 23 ft | 25 kts | 343° |
| 2026-05-07 09:36 | 31.14820 | 121.81247 | 23 ft | 9 kts | 346° |
| 2026-05-07 09:36 | 31.14855 | 121.81301 | 23 ft | 10 kts | 72° |
| 2026-05-07 09:36 | 31.14834 | 121.81358 | 24 ft | 8 kts | 166° |
| 2026-05-07 09:37 | 31.14731 | 121.81393 | 23 ft | 24 kts | 160° |
| 2026-05-07 09:37 | 31.14616 | 121.81429 | 23 ft | 9 kts | 195° |
| 2026-05-07 09:37 | 31.14591 | 121.81365 | 23 ft | 8 kts | 254° |
| 2026-05-07 09:37 | 31.14537 | 121.81352 | 23 ft | 13 kts | 161° |
| 2026-05-07 09:38 | 31.14423 | 121.81395 | 23 ft | 22 kts | 160° |
| 2026-05-07 09:38 | 31.14271 | 121.81454 | 23 ft | 24 kts | 162° |
| 2026-05-07 09:38 | 31.14099 | 121.81519 | 23 ft | 29 kts | 162° |
| 2026-05-07 09:38 | 31.13894 | 121.81595 | 23 ft | 32 kts | 162° |
| 2026-05-07 09:39 | 31.13720 | 121.81661 | 23 ft | 26 kts | 161° |
| 2026-05-07 09:39 | 31.13546 | 121.81728 | 23 ft | 27 kts | 162° |
| 2026-05-07 09:39 | 31.13361 | 121.81798 | 22 ft | 29 kts | 161° |
| 2026-05-07 09:39 | 31.13183 | 121.81865 | 22 ft | 28 kts | 162° |
| 2026-05-07 09:40 | 31.12995 | 121.81935 | 25 ft | 29 kts | 162° |
| 2026-05-07 09:40 | 31.12807 | 121.82008 | 23 ft | 29 kts | 162° |
| 2026-05-07 09:40 | 31.12633 | 121.82072 | 23 ft | 18 kts | 162° |
| 2026-05-07 09:40 | 31.12582 | 121.82116 | 25 ft | 8 kts | 110° |
| 2026-05-07 09:41 | 31.12594 | 121.82190 | 23 ft | 13 kts | 70° |
| 2026-05-07 09:41 | 31.12631 | 121.82320 | 23 ft | 19 kts | 71° |
| 2026-05-07 09:41 | 31.12683 | 121.82395 | 22 ft | 12 kts | 360° |
| 2026-05-07 09:41 | 31.12770 | 121.82361 | 22 ft | 16 kts | 342° |
| 2026-05-07 09:42 | 31.13057 | 121.82252 | 22 ft | 79 kts | 342° |
| 2026-05-07 09:42 | 31.13778 | 121.81981 | 24 ft | 136 kts | 342° |
| 2026-05-07 09:42 | 31.14814 | 121.81577 | 173 ft | 170 kts | 343° |
| 2026-05-07 09:42 | 31.15994 | 121.81151 | 628 ft | 181 kts | 345° |
| 2026-05-07 09:43 | 31.17222 | 121.80928 | 1268 ft | 179 kts | 2° |
| 2026-05-07 09:43 | 31.18461 | 121.81106 | 1966 ft | 182 kts | 9° |
| 2026-05-07 09:43 | 31.19771 | 121.81385 | 2314 ft | 202 kts | 10° |
| 2026-05-07 09:43 | 31.21247 | 121.81705 | 2653 ft | 228 kts | 9° |
| 2026-05-07 09:44 | 31.22891 | 121.82049 | 3139 ft | 250 kts | 9° |
| 2026-05-07 09:44 | 31.24643 | 121.82401 | 3902 ft | 260 kts | 8° |
| 2026-05-07 09:44 | 31.26441 | 121.82751 | 4774 ft | 266 kts | 7° |
| 2026-05-07 09:44 | 31.28289 | 121.83100 | 5625 ft | 272 kts | 6° |
| 2026-05-07 09:45 | 31.30176 | 121.83450 | 6485 ft | 277 kts | 6° |
| 2026-05-07 09:45 | 31.32095 | 121.83801 | 7319 ft | 281 kts | 6° |
| 2026-05-07 09:45 | 31.34042 | 121.84172 | 8199 ft | 285 kts | 9° |
| 2026-05-07 09:45 | 31.35913 | 121.84993 | 9072 ft | 293 kts | 26° |
| 2026-05-07 09:46 | 31.37548 | 121.86457 | 9969 ft | 299 kts | 43° |
| 2026-05-07 09:46 | 31.38862 | 121.88462 | 10071 ft | 334 kts | 54° |
| 2026-05-07 09:46 | 31.40083 | 121.90854 | 10024 ft | 338 kts | 64° |